Terminal Aerodrome Forecast
Issued by NWS Brownsville, TX

Home | Current Version | Previous Version | Text Only | Print | Product List | Glossary On
Versions: 1 2 3 4 5 6 7 8 9 10 11 12 13 14 15 16 17 18 19 20 21 22 23 24 25 26 27 28
856
FTUS44 KBRO 291739
TAFBRO
TAF
KBRO 291739Z 2918/3018 03010KT P6SM VCSH SCT025 BKN050
      TEMPO 2918/2920 -SHRA BKN025
     FM292100 05010G17KT P6SM SCT030 SCT100
     FM300200 02003KT P6SM FEW030=

USA.gov is the U.S. government's official web portal to all federal, state and local government web resources and services.